Time;durP1;ratioP1;P1;durP2;ratioP2;P2;SDS_P1;SDS_P2;PMS_P1;PMS_P2;Temp;Humidity;BMP_temperature;BMP_pressure;BME280_temperature;BME280_humidity;BME280_pressure;Samples;Min_cycle;Max_cycle;Signal;HPM_P1;HPM_P2
2023/10/27 00:01:30;;;;;;;10.52;7.68;;;11.60;99.90;;;;;;5062657;28;20641;-73
2023/10/27 00:03:56;;;;;;;9.07;8.23;;;11.70;99.90;;;;;;5069194;28;20206;-72
2023/10/27 00:06:23;;;;;;;9.02;8.00;;;11.60;99.90;;;;;;5063974;28;20731;-73
2023/10/27 00:08:52;;;;;;;7.50;6.72;;;11.60;99.90;;;;;;5069856;28;20553;-72
2023/10/27 00:11:18;;;;;;;10.18;9.07;;;11.60;99.90;;;;;;5065428;28;20288;-72
2023/10/27 00:13:45;;;;;;;9.55;8.63;;;11.60;99.90;;;;;;5073303;28;20330;-71
2023/10/27 00:16:12;;;;;;;9.50;8.07;;;11.60;99.90;;;;;;5070689;28;20281;-72
2023/10/27 00:18:40;;;;;;;10.65;9.65;;;11.60;99.90;;;;;;5061250;28;20257;-73
2023/10/27 00:21:07;;;;;;;10.35;9.40;;;11.60;99.90;;;;;;5057257;28;20253;-72
2023/10/27 00:23:34;;;;;;;6.13;5.63;;;11.70;99.90;;;;;;5067851;28;20202;-72
2023/10/27 00:26:03;;;;;;;9.20;8.32;;;11.70;99.90;;;;;;5068394;28;20302;-72
2023/10/27 00:28:32;;;;;;;10.73;7.22;;;11.60;99.90;;;;;;5065441;28;20715;-73
2023/10/27 00:31:00;;;;;;;8.20;7.50;;;11.70;99.90;;;;;;5058178;28;20283;-72
2023/10/27 00:33:27;;;;;;;6.90;6.20;;;11.70;99.90;;;;;;5068585;28;20568;-71
2023/10/27 00:35:54;;;;;;;10.98;8.68;;;11.80;99.90;;;;;;5066499;28;20288;-72
2023/10/27 00:38:22;;;;;;;7.38;6.63;;;11.60;99.90;;;;;;5072663;28;20300;-72
2023/10/27 00:40:49;;;;;;;10.05;9.07;;;11.60;99.90;;;;;;5066681;28;20233;-71
2023/10/27 00:43:18;;;;;;;9.25;7.82;;;11.60;99.90;;;;;;5072394;28;20198;-72
2023/10/27 00:45:47;;;;;;;8.95;8.15;;;11.60;99.90;;;;;;5072663;28;20285;-71
2023/10/27 00:48:15;;;;;;;8.90;7.15;;;11.60;99.90;;;;;;5072822;28;20243;-72
2023/10/27 00:50:42;;;;;;;10.18;9.15;;;11.60;99.90;;;;;;5084499;28;20229;-73
2023/10/27 00:53:10;;;;;;;7.38;6.65;;;11.50;99.90;;;;;;5071503;28;20594;-72
2023/10/27 00:55:39;;;;;;;9.18;8.10;;;11.60;99.90;;;;;;5069963;28;20197;-71
2023/10/27 00:58:08;;;;;;;9.95;8.30;;;11.60;99.90;;;;;;5068248;28;20312;-74
2023/10/27 01:00:36;;;;;;;10.50;8.23;;;11.50;99.90;;;;;;5074862;28;20777;-73
2023/10/27 01:03:04;;;;;;;7.68;6.97;;;11.50;99.90;;;;;;5085164;28;20286;-73
2023/10/27 01:05:31;;;;;;;8.32;7.15;;;11.50;99.90;;;;;;5064185;28;20630;-73
2023/10/27 01:07:58;;;;;;;8.50;7.70;;;11.50;99.90;;;;;;5061301;28;20621;-73
2023/10/27 01:10:25;;;;;;;8.48;7.78;;;11.50;99.90;;;;;;5075337;28;20549;-73
2023/10/27 01:12:52;;;;;;;8.13;7.32;;;11.50;99.90;;;;;;5063287;28;20208;-73
2023/10/27 01:15:19;;;;;;;10.32;9.32;;;11.60;99.90;;;;;;5082616;28;20776;-74
2023/10/27 01:17:48;;;;;;;10.45;8.20;;;11.50;99.90;;;;;;5071990;28;20224;-73
2023/10/27 01:20:15;;;;;;;10.10;8.95;;;11.40;99.90;;;;;;5068555;28;20290;-73
2023/10/27 01:22:46;;;;;;;10.43;9.43;;;11.50;99.90;;;;;;5074468;28;20204;-73
2023/10/27 01:25:13;;;;;;;12.20;8.93;;;11.50;99.90;;;;;;5073913;28;20297;-74
2023/10/27 01:27:40;;;;;;;9.20;8.30;;;11.50;99.90;;;;;;5066175;28;20228;-73
2023/10/27 01:30:09;;;;;;;7.60;6.90;;;11.50;99.90;;;;;;5072191;28;20206;-73
2023/10/27 01:32:36;;;;;;;9.82;8.85;;;11.50;99.90;;;;;;5073598;28;20231;-72
2023/10/27 01:35:03;;;;;;;7.18;6.57;;;11.50;99.90;;;;;;5059472;28;20241;-73
2023/10/27 01:37:30;;;;;;;8.30;7.22;;;11.60;99.90;;;;;;5075371;28;20319;-72
2023/10/27 01:39:59;;;;;;;8.05;7.25;;;11.60;99.90;;;;;;5063565;28;20256;-72
2023/10/27 01:42:26;;;;;;;7.38;6.68;;;11.50;99.90;;;;;;5067715;28;20227;-74
2023/10/27 01:44:53;;;;;;;7.70;5.97;;;11.50;99.90;;;;;;5062818;28;20201;-73
2023/10/27 01:47:20;;;;;;;11.32;9.73;;;11.50;99.90;;;;;;5065201;28;20227;-74
2023/10/27 01:49:47;;;;;;;10.68;8.88;;;11.40;99.90;;;;;;5067944;28;20677;-72
2023/10/27 01:52:14;;;;;;;10.55;8.70;;;11.40;99.90;;;;;;5068662;28;20244;-72
2023/10/27 01:54:41;;;;;;;10.52;9.45;;;11.30;99.90;;;;;;5072695;28;20288;-72
2023/10/27 01:57:09;;;;;;;9.43;8.43;;;11.40;99.90;;;;;;5067625;28;20313;-72
2023/10/27 01:59:36;;;;;;;10.23;9.23;;;11.30;99.90;;;;;;5073959;28;20240;-73
2023/10/27 02:02:03;;;;;;;7.65;7.03;;;11.30;99.90;;;;;;5069824;28;20221;-73
2023/10/27 02:04:34;;;;;;;7.35;6.75;;;11.30;99.90;;;;;;5061066;28;20287;-73
2023/10/27 02:07:01;;;;;;;6.63;5.95;;;11.30;99.90;;;;;;5062115;28;20224;-73
2023/10/27 02:09:28;;;;;;;8.73;7.93;;;11.20;99.90;;;;;;5067773;28;20202;-73
2023/10/27 02:11:55;;;;;;;8.13;7.43;;;11.30;99.90;;;;;;5065679;28;20720;-73
2023/10/27 02:14:23;;;;;;;7.72;7.03;;;11.10;99.90;;;;;;5064455;28;20201;-73
2023/10/27 02:16:50;;;;;;;8.23;7.18;;;11.10;99.90;;;;;;5068296;28;20760;-72
2023/10/27 02:19:17;;;;;;;8.50;7.70;;;11.10;99.90;;;;;;5070799;28;20681;-72
2023/10/27 02:21:45;;;;;;;6.63;6.03;;;11.10;99.90;;;;;;5077860;28;20222;-72
2023/10/27 02:24:14;;;;;;;8.20;6.40;;;11.20;99.90;;;;;;5067169;28;20209;-71
2023/10/27 02:26:41;;;;;;;6.47;5.88;;;11.20;99.90;;;;;;5071434;28;20313;-72
2023/10/27 02:29:08;;;;;;;6.03;5.43;;;11.10;99.90;;;;;;5064838;28;20209;-74
2023/10/27 02:31:36;;;;;;;6.78;6.18;;;11.10;99.90;;;;;;5065030;28;20224;-73
2023/10/27 02:34:03;;;;;;;9.63;5.97;;;11.10;99.90;;;;;;5069616;28;20301;-73
2023/10/27 02:36:30;;;;;;;6.10;5.60;;;11.10;99.90;;;;;;5072487;28;20232;-73
2023/10/27 02:38:57;;;;;;;6.45;5.35;;;11.20;99.90;;;;;;5065259;28;20691;-72
2023/10/27 02:41:24;;;;;;;6.68;5.80;;;11.20;99.90;;;;;;5063656;28;20320;-70
2023/10/27 02:43:51;;;;;;;6.50;6.00;;;11.30;99.90;;;;;;5072221;28;20236;-71
2023/10/27 02:46:18;;;;;;;6.47;5.88;;;11.20;99.90;;;;;;5066819;28;20265;-70
2023/10/27 02:48:46;;;;;;;7.05;6.10;;;11.30;99.90;;;;;;5068164;28;20295;-72
2023/10/27 02:51:13;;;;;;;5.50;5.00;;;11.20;99.90;;;;;;5065193;28;20202;-74
2023/10/27 02:53:40;;;;;;;5.60;5.18;;;11.20;99.90;;;;;;5069645;28;20723;-71
2023/10/27 02:56:09;;;;;;;7.75;5.40;;;11.30;99.90;;;;;;5066889;28;20236;-72
2023/10/27 02:58:36;;;;;;;4.13;3.83;;;11.30;99.90;;;;;;5058744;28;20221;-72
2023/10/27 03:01:07;;;;;;;6.72;5.15;;;11.40;99.90;;;;;;5062833;28;20237;-72
2023/10/27 03:03:34;;;;;;;5.00;4.50;;;11.20;99.90;;;;;;5062703;28;20195;-72
2023/10/27 03:06:03;;;;;;;4.85;4.30;;;11.20;99.90;;;;;;5068340;28;20288;-72
2023/10/27 03:08:30;;;;;;;5.68;5.18;;;11.20;99.90;;;;;;5062172;28;20217;-71
2023/10/27 03:10:57;;;;;;;5.03;4.53;;;11.10;99.90;;;;;;5063968;28;20228;-72
2023/10/27 03:13:24;;;;;;;9.50;4.57;;;11.20;99.90;;;;;;5066921;28;20203;-72
2023/10/27 03:15:50;;;;;;;3.90;3.50;;;11.20;99.90;;;;;;5059919;28;20200;-72
2023/10/27 03:18:17;;;;;;;5.13;4.63;;;11.20;99.90;;;;;;5065861;28;20236;-72
2023/10/27 03:20:44;;;;;;;5.32;4.85;;;11.20;99.90;;;;;;5059138;28;20197;-72
2023/10/27 03:23:12;;;;;;;5.25;4.75;;;11.10;99.90;;;;;;5065733;28;20663;-72
2023/10/27 03:25:39;;;;;;;4.95;3.85;;;11.10;99.90;;;;;;5061816;28;20202;-73
2023/10/27 03:28:07;;;;;;;4.85;4.35;;;11.10;99.90;;;;;;5065856;28;20304;-72
2023/10/27 03:30:33;;;;;;;4.75;3.80;;;11.10;99.90;;;;;;5064583;28;20202;-73
2023/10/27 03:33:00;;;;;;;3.15;2.85;;;11.10;99.90;;;;;;5059696;28;20300;-73
2023/10/27 03:35:29;;;;;;;8.20;3.78;;;11.10;99.90;;;;;;5066320;28;20656;-72
2023/10/27 03:37:56;;;;;;;4.97;4.35;;;11.10;99.90;;;;;;5060092;28;20217;-73
2023/10/27 03:40:25;;;;;;;4.57;4.13;;;11.10;99.90;;;;;;5066849;28;20548;-72
2023/10/27 03:42:52;;;;;;;5.32;4.80;;;11.10;99.90;;;;;;5065912;28;20653;-72
2023/10/27 03:45:19;;;;;;;4.32;3.42;;;11.10;99.90;;;;;;5064125;28;20488;-74
2023/10/27 03:47:46;;;;;;;5.30;4.38;;;11.20;99.90;;;;;;5062081;28;20216;-73
2023/10/27 03:50:13;;;;;;;4.05;3.75;;;11.20;99.90;;;;;;5066673;28;20212;-73
2023/10/27 03:52:39;;;;;;;5.53;4.10;;;11.20;99.90;;;;;;5068795;28;20203;-72
2023/10/27 03:55:07;;;;;;;3.55;3.25;;;11.10;99.90;;;;;;5059030;28;20903;-72
2023/10/27 03:57:36;;;;;;;4.20;3.83;;;11.20;99.90;;;;;;5061393;28;20232;-72
2023/10/27 04:00:04;;;;;;;4.82;3.70;;;11.20;99.90;;;;;;5062010;28;20756;-71
2023/10/27 04:02:31;;;;;;;3.88;3.47;;;11.30;99.90;;;;;;5070204;28;20275;-71
2023/10/27 04:04:58;;;;;;;3.83;3.53;;;11.20;99.90;;;;;;5064853;28;20209;-72
2023/10/27 04:07:25;;;;;;;3.92;3.63;;;11.20;99.90;;;;;;5065232;28;20316;-72
2023/10/27 04:09:52;;;;;;;4.53;3.67;;;11.30;99.90;;;;;;5060500;28;20715;-74
2023/10/27 04:12:19;;;;;;;2.92;2.72;;;11.30;99.90;;;;;;5069515;28;20234;-73
2023/10/27 04:14:47;;;;;;;4.70;3.85;;;11.20;99.90;;;;;;5069216;28;20281;-72
2023/10/27 04:17:14;;;;;;;4.70;3.60;;;11.30;99.90;;;;;;5072233;28;20227;-72
2023/10/27 04:19:43;;;;;;;3.38;3.05;;;11.20;99.90;;;;;;5071037;28;20287;-72
2023/10/27 04:22:10;;;;;;;4.25;3.10;;;11.10;99.90;;;;;;5067960;28;20644;-72
2023/10/27 04:24:37;;;;;;;3.40;3.10;;;11.10;99.90;;;;;;5064570;28;20255;-72
2023/10/27 04:27:04;;;;;;;5.47;3.65;;;11.10;99.90;;;;;;5069380;28;20311;-72
2023/10/27 04:29:31;;;;;;;4.25;3.35;;;11.20;99.90;;;;;;5062610;28;20214;-73
2023/10/27 04:32:03;;;;;;;2.75;2.55;;;11.20;99.90;;;;;;5073351;28;20576;-71
2023/10/27 04:34:29;;;;;;;6.78;3.72;;;11.20;99.90;;;;;;5065364;28;20212;-71
2023/10/27 04:36:57;;;;;;;2.78;2.58;;;11.20;99.90;;;;;;5069565;28;20339;-72
2023/10/27 04:39:24;;;;;;;3.50;2.70;;;11.10;99.90;;;;;;5065419;28;20206;-72
2023/10/27 04:41:51;;;;;;;3.10;2.33;;;11.10;99.90;;;;;;5073546;28;20260;-73
2023/10/27 04:44:22;;;;;;;6.70;2.97;;;11.20;99.90;;;;;;5068447;28;20266;-72
2023/10/27 04:46:49;;;;;;;4.13;2.70;;;11.20;99.90;;;;;;5073995;28;20303;-73
2023/10/27 04:49:18;;;;;;;5.25;3.42;;;11.10;99.90;;;;;;5071850;28;20252;-73
2023/10/27 04:51:45;;;;;;;4.00;2.65;;;11.10;99.90;;;;;;5073273;28;20286;-73
2023/10/27 04:54:12;;;;;;;3.30;2.60;;;11.10;99.90;;;;;;5074676;28;20211;-72
2023/10/27 04:56:39;;;;;;;2.95;2.75;;;11.10;99.90;;;;;;5068747;28;20306;-73
2023/10/27 04:59:06;;;;;;;6.57;3.70;;;11.20;99.90;;;;;;5062689;28;20229;-73
2023/10/27 05:01:32;;;;;;;2.40;2.10;;;11.20;99.90;;;;;;5070391;28;20228;-73
2023/10/27 05:03:59;;;;;;;3.95;3.63;;;11.10;99.90;;;;;;5066101;28;20202;-73
2023/10/27 05:06:30;;;;;;;4.50;3.00;;;11.20;99.90;;;;;;5065401;28;20296;-72
2023/10/27 05:08:57;;;;;;;3.47;3.17;;;11.20;99.90;;;;;;5070493;28;20232;-71
2023/10/27 05:11:23;;;;;;;3.67;2.78;;;11.20;99.90;;;;;;5064681;28;20234;-70
2023/10/27 05:13:50;;;;;;;5.05;2.78;;;11.10;99.90;;;;;;5070242;28;20289;-74
2023/10/27 05:16:17;;;;;;;2.88;2.65;;;11.10;99.90;;;;;;5065951;28;20673;-71
2023/10/27 05:18:44;;;;;;;3.55;3.25;;;11.10;99.90;;;;;;5067996;28;20201;-72
2023/10/27 05:21:16;;;;;;;4.10;3.70;;;11.10;99.90;;;;;;5065757;28;20210;-72
2023/10/27 05:23:44;;;;;;;8.00;3.90;;;11.10;99.90;;;;;;5067043;28;20217;-73
2023/10/27 05:26:11;;;;;;;3.60;3.25;;;11.10;99.90;;;;;;5085667;28;20262;-71
2023/10/27 05:28:39;;;;;;;4.45;3.50;;;11.20;99.90;;;;;;5068815;28;20253;-71
2023/10/27 05:31:06;;;;;;;3.38;2.83;;;11.20;99.90;;;;;;5065966;28;20209;-71
2023/10/27 05:33:33;;;;;;;8.20;4.25;;;11.20;99.90;;;;;;5065963;28;20297;-72
2023/10/27 05:36:00;;;;;;;4.43;3.65;;;11.20;99.90;;;;;;5070656;28;20303;-72
2023/10/27 05:38:27;;;;;;;6.43;3.47;;;11.20;99.90;;;;;;5059225;28;20254;-71
2023/10/27 05:40:55;;;;;;;3.10;2.53;;;11.20;99.90;;;;;;5069738;28;20205;-71
2023/10/27 05:43:22;;;;;;;4.40;3.38;;;11.20;99.90;;;;;;5070208;28;20769;-72
2023/10/27 05:45:49;;;;;;;3.65;3.35;;;11.20;99.90;;;;;;5066990;28;20224;-74
2023/10/27 05:48:16;;;;;;;6.10;4.20;;;11.20;99.90;;;;;;5066189;28;20781;-74
2023/10/27 05:50:43;;;;;;;4.82;3.58;;;11.20;99.90;;;;;;5072234;28;20675;-72
2023/10/27 05:53:11;;;;;;;7.32;4.35;;;11.10;99.90;;;;;;5069457;28;20197;-72
2023/10/27 05:55:39;;;;;;;5.30;4.43;;;11.10;99.90;;;;;;5059168;28;20204;-73
2023/10/27 05:58:09;;;;;;;4.20;3.80;;;11.00;99.90;;;;;;5071870;28;20589;-73
2023/10/27 06:00:36;;;;;;;6.90;5.22;;;11.00;99.90;;;;;;5067010;28;20235;-75
2023/10/27 06:03:03;;;;;;;6.20;5.32;;;11.00;99.90;;;;;;5060466;28;20228;-74
2023/10/27 06:05:30;;;;;;;7.30;5.20;;;11.00;99.90;;;;;;5058952;28;20574;-73
2023/10/27 06:07:58;;;;;;;4.80;4.40;;;11.00;99.90;;;;;;5065564;28;20227;-75
2023/10/27 06:10:25;;;;;;;10.60;5.30;;;11.00;99.90;;;;;;5059816;28;20218;-76
2023/10/27 06:12:52;;;;;;;7.03;5.25;;;11.00;99.90;;;;;;5066800;28;20623;-75
2023/10/27 06:15:20;;;;;;;9.90;6.38;;;11.00;99.90;;;;;;5061914;28;20207;-75
2023/10/27 06:17:48;;;;;;;7.97;5.20;;;11.00;99.90;;;;;;5062290;28;20262;-74
2023/10/27 06:20:15;;;;;;;6.47;5.57;;;11.00;99.90;;;;;;5057116;28;20204;-75
2023/10/27 06:22:43;;;;;;;11.20;7.32;;;11.00;99.90;;;;;;5057165;28;20261;-75
2023/10/27 06:25:10;;;;;;;8.93;6.90;;;11.00;99.90;;;;;;5066397;28;20265;-73
2023/10/27 06:27:39;;;;;;;6.63;5.55;;;11.00;99.90;;;;;;5061740;28;20331;-74
2023/10/27 06:30:07;;;;;;;7.80;6.30;;;11.00;99.90;;;;;;5066932;28;20282;-74
2023/10/27 06:32:36;;;;;;;14.73;7.95;;;11.00;99.90;;;;;;5066643;28;20655;-74
2023/10/27 06:35:04;;;;;;;12.02;7.35;;;10.90;99.90;;;;;;5059335;28;20212;-73
2023/10/27 06:37:31;;;;;;;9.27;6.80;;;11.00;99.90;;;;;;5060661;28;20701;-76
2023/10/27 06:40:00;;;;;;;9.20;7.32;;;11.00;99.90;;;;;;5068626;28;20217;-73
2023/10/27 06:42:27;;;;;;;10.23;6.90;;;11.00;99.90;;;;;;5069072;28;20230;-74
2023/10/27 06:44:55;;;;;;;8.75;7.38;;;11.00;99.90;;;;;;5058605;28;20309;-73
2023/10/27 06:47:22;;;;;;;11.23;8.10;;;11.00;99.90;;;;;;5066734;28;20308;-72
2023/10/27 06:49:50;;;;;;;9.95;8.13;;;11.00;99.90;;;;;;5068072;28;21433;-75
2023/10/27 06:52:17;;;;;;;10.77;8.23;;;11.00;99.90;;;;;;5062576;28;20233;-75
2023/10/27 06:54:46;;;;;;;9.40;7.63;;;11.10;99.90;;;;;;5059944;28;20292;-74
2023/10/27 06:57:13;;;;;;;14.05;8.98;;;11.20;99.90;;;;;;5061989;28;20235;-73
2023/10/27 06:59:40;;;;;;;9.35;7.00;;;11.20;99.90;;;;;;5058413;28;20341;-73
2023/10/27 07:02:07;;;;;;;10.57;8.48;;;11.20;99.90;;;;;;5054456;28;20297;-73
2023/10/27 07:04:33;;;;;;;9.52;7.78;;;11.20;99.90;;;;;;5063277;28;21236;-75
2023/10/27 07:07:05;;;;;;;8.90;7.35;;;11.20;99.90;;;;;;5063687;28;20299;-73
2023/10/27 07:09:32;;;;;;;8.75;7.43;;;11.30;99.90;;;;;;5064317;28;20202;-76
2023/10/27 07:12:00;;;;;;;16.92;9.73;;;11.30;99.90;;;;;;5069952;28;20228;-75
2023/10/27 07:14:27;;;;;;;13.65;9.63;;;11.30;99.90;;;;;;5060383;28;20581;-76
2023/10/27 07:16:55;;;;;;;12.32;9.57;;;11.30;99.90;;;;;;5068682;28;20219;-76
2023/10/27 07:19:22;;;;;;;14.98;11.65;;;11.20;99.90;;;;;;5062598;28;20202;-74
2023/10/27 07:21:49;;;;;;;12.13;9.20;;;11.20;99.90;;;;;;5065557;28;20250;-74
2023/10/27 07:24:18;;;;;;;12.20;9.45;;;11.20;99.90;;;;;;5066791;28;20220;-75
2023/10/27 07:26:44;;;;;;;10.25;9.15;;;11.20;99.90;;;;;;5065748;28;20232;-73
2023/10/27 07:29:11;;;;;;;17.25;11.00;;;11.20;99.90;;;;;;5071253;28;20282;-75
2023/10/27 07:31:38;;;;;;;12.82;10.50;;;11.20;99.90;;;;;;5067258;28;20205;-73
2023/10/27 07:34:06;;;;;;;17.15;11.38;;;11.20;99.90;;;;;;5067349;28;20217;-76
2023/10/27 07:36:33;;;;;;;15.98;10.18;;;11.20;99.90;;;;;;5071385;28;20217;-74
2023/10/27 07:39:00;;;;;;;16.83;11.75;;;11.30;99.90;;;;;;5067455;28;20296;-74
2023/10/27 07:41:28;;;;;;;19.25;13.80;;;11.30;99.90;;;;;;5074386;28;20953;-75
2023/10/27 07:43:55;;;;;;;19.17;14.88;;;11.40;99.90;;;;;;5074280;28;20227;-75
2023/10/27 07:46:22;;;;;;;20.52;14.20;;;11.40;99.90;;;;;;5065026;28;20552;-76
2023/10/27 07:48:49;;;;;;;19.67;15.05;;;11.40;99.90;;;;;;5060486;28;20196;-76
2023/10/27 07:51:16;;;;;;;22.05;16.33;;;11.30;99.90;;;;;;5070501;28;20286;-76
2023/10/27 07:53:49;;;;;;;28.60;16.02;;;11.40;99.90;;;;;;5070224;28;20216;-76
2023/10/27 07:56:17;;;;;;;21.60;14.35;;;11.30;99.90;;;;;;5072283;28;20196;-77
2023/10/27 07:58:46;;;;;;;19.45;15.52;;;11.30;99.90;;;;;;5069951;28;20211;-76
2023/10/27 08:01:13;;;;;;;20.70;14.73;;;11.30;99.90;;;;;;5071062;28;20236;-75
2023/10/27 08:03:41;;;;;;;18.35;14.52;;;11.30;99.90;;;;;;5064484;28;20241;-75
2023/10/27 08:06:09;;;;;;;21.88;14.95;;;11.30;99.90;;;;;;5078685;28;20231;-75
2023/10/27 08:08:37;;;;;;;24.27;16.33;;;11.40;99.90;;;;;;5081051;28;20285;-75
2023/10/27 08:11:05;;;;;;;17.73;12.88;;;11.30;99.90;;;;;;5073392;28;20201;-75
2023/10/27 08:13:32;;;;;;;19.20;15.07;;;11.30;99.90;;;;;;5071703;28;20204;-76
2023/10/27 08:16:02;;;;;;;20.73;15.77;;;11.30;99.90;;;;;;5063410;28;20210;-75
2023/10/27 08:18:29;;;;;;;20.45;13.73;;;11.30;99.90;;;;;;5070727;28;20236;-76
2023/10/27 08:20:57;;;;;;;18.58;13.98;;;11.30;99.90;;;;;;5070769;28;20293;-75
2023/10/27 08:23:24;;;;;;;20.92;14.35;;;11.30;99.90;;;;;;5059792;28;20320;-76
2023/10/27 08:25:51;;;;;;;25.23;15.60;;;11.30;99.90;;;;;;5064065;28;20240;-75
2023/10/27 08:28:18;;;;;;;18.45;14.30;;;11.30;99.90;;;;;;5060612;28;20225;-74
2023/10/27 08:30:45;;;;;;;23.20;15.63;;;11.30;99.90;;;;;;5072868;28;20596;-75
2023/10/27 08:33:14;;;;;;;15.95;12.85;;;11.40;99.90;;;;;;5060226;28;20237;-75
2023/10/27 08:35:41;;;;;;;15.93;11.93;;;11.40;99.90;;;;;;5059776;28;20202;-76
2023/10/27 08:38:08;;;;;;;29.00;15.75;;;11.50;99.90;;;;;;5071174;28;20590;-75
2023/10/27 08:40:36;;;;;;;21.42;14.52;;;11.50;99.90;;;;;;5070765;28;20201;-75
2023/10/27 08:43:04;;;;;;;15.27;11.82;;;11.50;99.90;;;;;;5067918;28;20616;-76
2023/10/27 08:45:34;;;;;;;19.48;14.45;;;11.60;99.90;;;;;;5068642;28;20618;-78
2023/10/27 08:48:01;;;;;;;15.90;12.10;;;11.60;99.90;;;;;;5063766;28;20313;-75
2023/10/27 08:50:31;;;;;;;15.40;11.82;;;11.60;99.90;;;;;;5069796;28;20208;-77
2023/10/27 08:52:58;;;;;;;19.17;14.68;;;11.70;99.90;;;;;;5068480;28;20283;-74
2023/10/27 08:55:26;;;;;;;16.30;13.32;;;11.70;99.90;;;;;;5064695;28;20210;-77
2023/10/27 08:57:55;;;;;;;16.33;12.55;;;11.80;99.90;;;;;;5071457;28;20630;-77
2023/10/27 09:00:23;;;;;;;17.13;11.82;;;11.80;99.90;;;;;;5070665;28;20202;-75
2023/10/27 09:02:50;;;;;;;13.77;10.00;;;11.80;99.90;;;;;;5068425;28;20658;-76
2023/10/27 09:05:17;;;;;;;15.07;10.65;;;11.80;99.90;;;;;;5065561;28;20296;-75
2023/10/27 09:07:46;;;;;;;14.02;10.52;;;11.80;99.90;;;;;;5058504;28;20222;-75
2023/10/27 09:10:14;;;;;;;17.30;10.43;;;11.80;99.90;;;;;;5064238;28;20241;-75
2023/10/27 09:12:41;;;;;;;15.25;10.82;;;11.80;99.90;;;;;;5067297;28;20589;-75
2023/10/27 09:15:12;;;;;;;11.75;10.00;;;11.90;99.90;;;;;;5067127;28;20202;-75
2023/10/27 09:17:53;;;;;;;19.27;11.10;;;11.70;99.90;;;;;;5063557;28;20271;-77
2023/10/27 09:20:21;;;;;;;12.63;9.43;;;11.60;99.90;;;;;;5067551;28;20304;-73
2023/10/27 09:22:58;;;;;;;14.68;11.93;;;11.70;99.90;;;;;;5062139;28;20202;-74
2023/10/27 09:25:29;;;;;;;14.10;9.00;;;11.70;99.90;;;;;;5067014;28;20203;-74
2023/10/27 09:27:58;;;;;;;15.63;11.23;;;11.70;99.90;;;;;;5062825;28;20222;-74
2023/10/27 09:30:29;;;;;;;16.88;10.32;;;11.70;99.90;;;;;;5067379;28;20201;-74
2023/10/27 09:32:56;;;;;;;13.68;10.10;;;11.80;99.90;;;;;;5054313;28;20281;-73
2023/10/27 09:35:26;;;;;;;13.73;9.98;;;11.80;99.90;;;;;;5063454;28;20427;-74
2023/10/27 09:37:55;;;;;;;12.35;10.02;;;11.80;99.90;;;;;;5064196;28;20311;-75
2023/10/27 09:40:23;;;;;;;13.30;10.52;;;11.80;99.90;;;;;;5067835;28;20205;-75
2023/10/27 09:42:53;;;;;;;16.80;9.70;;;11.70;99.90;;;;;;5066527;28;20640;-74
2023/10/27 09:45:26;;;;;;;11.65;9.77;;;11.90;99.90;;;;;;5069875;28;20295;-74
2023/10/27 09:48:02;;;;;;;13.18;11.10;;;11.80;99.90;;;;;;5066861;28;20244;-74
2023/10/27 09:50:30;;;;;;;11.75;10.35;;;11.80;99.90;;;;;;5056049;28;20201;-73
2023/10/27 09:52:59;;;;;;;13.02;11.48;;;11.80;99.90;;;;;;5066518;28;20575;-75
2023/10/27 09:55:28;;;;;;;13.35;9.85;;;11.80;99.90;;;;;;5059072;28;20277;-73
2023/10/27 09:57:55;;;;;;;11.55;9.15;;;11.80;99.90;;;;;;5065678;28;20221;-74
2023/10/27 10:00:25;;;;;;;11.88;9.45;;;11.90;99.90;;;;;;5057766;28;20209;-73
2023/10/27 10:02:52;;;;;;;15.60;10.43;;;11.90;99.90;;;;;;5065650;28;20202;-74
2023/10/27 10:05:19;;;;;;;11.18;8.70;;;11.90;99.90;;;;;;5061008;28;20289;-74
2023/10/27 10:07:52;;;;;;;11.30;10.02;;;11.90;99.90;;;;;;5059062;28;20231;-73
2023/10/27 10:10:30;;;;;;;10.60;9.48;;;11.80;99.90;;;;;;5064983;28;20232;-74
2023/10/27 10:13:08;;;;;;;12.05;10.20;;;11.80;99.90;;;;;;5064876;28;20212;-75
2023/10/27 10:15:36;;;;;;;12.65;10.82;;;11.80;99.90;;;;;;5066640;28;20678;-73
2023/10/27 10:18:05;;;;;;;12.25;9.70;;;11.90;99.90;;;;;;5064557;28;20620;-73
2023/10/27 10:20:57;;;;;;;14.10;9.90;;;11.90;99.90;;;;;;5064025;28;20569;-74
2023/10/27 10:23:26;;;;;;;12.65;9.50;;;12.00;99.90;;;;;;5061957;28;20639;-73
2023/10/27 10:25:55;;;;;;;12.10;9.82;;;12.10;99.90;;;;;;5067299;28;20348;-73
2023/10/27 10:28:27;;;;;;;17.05;12.13;;;12.30;99.90;;;;;;5061861;28;20645;-75
2023/10/27 10:31:23;;;;;;;13.82;10.27;;;12.20;99.90;;;;;;5065361;28;20298;-74
2023/10/27 10:33:51;;;;;;;12.95;10.05;;;12.20;99.90;;;;;;5058170;28;20260;-73
2023/10/27 10:36:27;;;;;;;13.85;11.32;;;12.30;99.90;;;;;;5065897;28;20203;-73
2023/10/27 10:38:58;;;;;;;12.85;10.57;;;12.30;99.90;;;;;;5062105;28;20237;-74
2023/10/27 10:42:03;;;;;;;12.63;10.90;;;12.20;99.90;;;;;;5064375;28;20206;-75
2023/10/27 10:44:34;;;;;;;14.00;9.60;;;12.20;99.90;;;;;;5065777;28;20214;-76
2023/10/27 10:47:03;;;;;;;11.10;9.48;;;12.20;99.90;;;;;;5060868;28;20617;-75
2023/10/27 10:49:31;;;;;;;16.83;12.57;;;12.30;99.90;;;;;;5055938;28;20246;-74
2023/10/27 10:51:59;;;;;;;13.75;10.45;;;12.30;99.90;;;;;;5068750;28;20229;-75
2023/10/27 10:54:31;;;;;;;12.18;10.50;;;12.30;99.90;;;;;;5066639;28;20234;-74
2023/10/27 10:57:09;;;;;;;12.88;10.77;;;12.30;99.90;;;;;;5076095;28;20249;-77
2023/10/27 10:59:36;;;;;;;10.88;9.65;;;12.40;99.90;;;;;;5062538;28;20241;-74
2023/10/27 11:02:05;;;;;;;12.30;9.75;;;12.50;99.90;;;;;;5061105;28;20571;-74
2023/10/27 11:04:33;;;;;;;11.52;10.32;;;12.50;99.90;;;;;;5063947;28;20226;-75
2023/10/27 11:07:05;;;;;;;11.85;10.45;;;12.40;99.90;;;;;;5061753;28;20318;-74
2023/10/27 11:09:32;;;;;;;13.40;11.00;;;12.40;99.90;;;;;;5061153;28;20286;-75
2023/10/27 11:12:02;;;;;;;13.23;11.18;;;12.40;99.90;;;;;;5067348;28;20296;-74
2023/10/27 11:14:39;;;;;;;13.90;10.88;;;12.40;99.90;;;;;;5054239;28;20194;-75
2023/10/27 11:17:11;;;;;;;11.75;10.02;;;12.40;99.90;;;;;;5062899;28;20340;-73
2023/10/27 11:19:52;;;;;;;15.40;12.63;;;12.40;99.90;;;;;;5061800;28;20209;-75
2023/10/27 11:22:23;;;;;;;13.40;11.50;;;12.50;99.90;;;;;;5054652;28;20203;-76
2023/10/27 11:24:50;;;;;;;20.25;13.57;;;12.50;99.90;;;;;;5056020;28;20222;-75
2023/10/27 11:27:24;;;;;;;12.27;10.65;;;12.50;99.90;;;;;;5057967;28;20684;-75
2023/10/27 11:30:03;;;;;;;20.58;9.85;;;12.50;99.90;;;;;;5057588;28;20204;-75
2023/10/27 11:32:30;;;;;;;19.05;12.02;;;12.50;99.90;;;;;;5060459;28;20199;-74
2023/10/27 11:34:57;;;;;;;12.27;11.02;;;12.50;99.90;;;;;;5064907;28;20202;-73
2023/10/27 11:37:25;;;;;;;14.45;11.27;;;12.50;99.90;;;;;;5066316;28;20225;-76
2023/10/27 11:39:52;;;;;;;13.50;10.00;;;12.50;99.90;;;;;;5060697;28;20206;-75
2023/10/27 11:42:19;;;;;;;14.32;10.60;;;12.50;99.90;;;;;;5071201;28;20281;-75
2023/10/27 11:44:46;;;;;;;15.15;10.98;;;12.50;99.90;;;;;;5067765;28;20305;-76
2023/10/27 11:47:14;;;;;;;14.35;10.98;;;12.50;99.90;;;;;;5064543;28;20302;-75
2023/10/27 11:49:41;;;;;;;17.60;11.88;;;12.40;99.90;;;;;;5062301;28;20243;-73
2023/10/27 11:52:09;;;;;;;14.18;10.93;;;12.40;99.90;;;;;;5065217;28;20198;-75
2023/10/27 11:54:36;;;;;;;13.35;10.68;;;12.40;99.90;;;;;;5064810;28;20675;-76
2023/10/27 11:57:04;;;;;;;15.95;12.73;;;12.40;99.90;;;;;;5065085;28;20243;-75
2023/10/27 11:59:31;;;;;;;14.18;11.43;;;12.30;99.90;;;;;;5068703;28;20600;-75
2023/10/27 12:01:58;;;;;;;14.20;11.32;;;12.30;99.90;;;;;;5058868;28;20656;-76
2023/10/27 12:04:26;;;;;;;11.93;9.70;;;12.20;99.90;;;;;;5067478;28;20226;-73
2023/10/27 12:06:53;;;;;;;13.32;9.82;;;12.10;99.90;;;;;;5065970;28;20222;-73
2023/10/27 12:09:20;;;;;;;13.95;11.43;;;12.20;99.90;;;;;;5062203;28;20202;-75
2023/10/27 12:11:47;;;;;;;15.18;10.57;;;12.10;99.90;;;;;;5058653;28;20288;-75
2023/10/27 12:14:15;;;;;;;12.82;11.32;;;12.10;99.90;;;;;;5067800;28;20209;-74
2023/10/27 12:16:43;;;;;;;16.02;11.15;;;12.10;99.90;;;;;;5070197;28;20221;-74
2023/10/27 12:19:13;;;;;;;14.77;10.48;;;12.10;99.90;;;;;;5057404;28;20211;-73
2023/10/27 12:21:41;;;;;;;18.42;13.57;;;12.20;99.90;;;;;;5066119;28;20203;-75
2023/10/27 12:24:09;;;;;;;16.27;11.07;;;12.10;99.90;;;;;;5062264;28;20720;-75
2023/10/27 12:26:37;;;;;;;14.23;11.43;;;12.20;99.90;;;;;;5068330;28;20234;-75
2023/10/27 12:29:04;;;;;;;15.60;10.80;;;12.10;99.90;;;;;;5064099;28;20237;-76
2023/10/27 12:31:32;;;;;;;14.40;10.93;;;12.00;99.90;;;;;;5058033;28;20293;-77
2023/10/27 12:33:59;;;;;;;13.20;10.57;;;12.00;99.90;;;;;;5064167;28;20214;-74
2023/10/27 12:36:26;;;;;;;13.27;10.35;;;12.00;99.90;;;;;;5061870;28;20289;-76
2023/10/27 12:38:54;;;;;;;12.57;10.70;;;11.90;99.90;;;;;;5066159;28;20214;-77
2023/10/27 12:41:21;;;;;;;10.90;9.02;;;11.90;99.90;;;;;;5069984;28;20244;-74
2023/10/27 12:43:48;;;;;;;14.40;11.50;;;11.90;99.90;;;;;;5058153;28;20237;-74